SVPL1: Red River at Shreveport Site 2

                                SHEF ID:       SVPL1     Red River at Shreveport Site 2
STATION TYPE:

PRECIP STAGE RIV-FLOW VOLTAGE
in ft cfs volt
Ccp-Rev Ccp-Rev Ccp-Rev Ccp-Rev
(America/Chicago)
07/04 00:00 0.00 18.66 38300 12.83
07/04 01:00 0.00 18.59 37950 12.83
07/04 02:00 0.00 18.50 37500 12.82
07/04 03:00 0.00 18.42 37100 12.82
07/04 04:00 0.00 18.38 36900 12.80
07/04 05:00 0.00 18.31 36550 12.78
07/04 06:00 0.00 18.25 36250 12.78
07/04 07:00 0.00 18.08 35400 13.02
07/04 08:00 0.00 18.08 35400 13.39
07/04 09:00 0.00 18.04 35200 13.06
07/04 10:00 0.00 17.88 34400 13.06
07/04 11:00 0.00 17.88 34400 13.07
07/04 12:00 0.00 17.70 33500 13.07
07/04 13:00 0.00 17.78 33900 13.07
07/04 14:00 0.00 17.73 33650 13.10
07/04 15:00 0.00 17.61 33050 13.09
07/04 16:00 0.00 17.56 32800 13.07
07/04 17:00 0.00 17.58 32900 13.10
07/04 18:00 0.00 17.36 31800 12.96
07/04 19:00 0.00 17.51 32550 12.90
07/04 20:00 0.00 17.38 31900 12.87
07/04 21:00 0.00 17.28 31400 12.86
07/04 22:00 0.00 17.39 31950 12.84
07/04 23:00 0.00 17.28 31400 12.86
Data processed at Sun 05Jul2026 04:24 GMT

NOTICE: If you are parsing this page

Please convert to using our Data API. Starting early 2026 we will be migrating to: https://water.usace.army.mil with modern pages rendered in JavaScript. When this migration completes you will no longer be able to scrape this page! CWMSDataAPI (CDA)

Timeseries IDs (TSIDs)

TSIDs used from left to right in the data table
SHRE.Precip-Inc.Total.1Hour.1Hour.Ccp-Rev
SHRE.Stage.Inst.1Hour.0.Ccp-Rev
SHRE.Flow.Inst.1Hour.0.Ccp-Rev
SHRE.Volt-Battery.Inst.1Hour.0.Ccp-Rev

                            

All information presented herein is the property of the government of the United States of America and may be revised or deleted at any time without prior notice. Dissemination of this information without the expressed written consent of the Public Affairs Office, Tulsa District U.S. Army Corps of Engineers is strictly prohibited. These data are gathered electronically and, as presented, have NOT undergone any form of quality control. These data are NOT guaranteed to be valid or correct.